Terminal Aerodrome Forecast
Issued by NWS Boise, ID

Home | Current Version | Previous Version | Text Only | Print | Product List | Glossary On
Versions: 1 2 3 4 5 6 7 8 9 10 11 12 13 14 15 16 17 18 19 20 21 22 23 24 25 26
216
FTUS45 KBOI 261720
TAFBNO
TAF
KBNO 261720Z 2618/2718 23008KT P6SM -SHRA SCT020 OVC040
      TEMPO 2618/2621 SCT009 OVC015
     FM262200 26015G23KT P6SM VCSH BKN040
     FM270200 25012KT P6SM SCT050=

USA.gov is the U.S. government's official web portal to all federal, state and local government web resources and services.